CPX463 Details

Departure: March Air Reserve Base (KRIV)
Arrival: Tampa International Airport (KTPA)
Route: TRM J169 TFD J50 SSO J4 EWM SJT CLL DAS LEV Y280 CHRGE SIMMR BLOND5


Current Weather Information
KRIV 250358Z AUTO 00000KT 10SM CLR 26/09 A2998 RMK AO2 SLP138 T02610090
KTPA 250353Z 10007KT 10SM FEW030 29/23 A2997 RMK AO2 SLP149 OCNL LTGIC DSNT SW CB DSNT SW T02940228 $